Santa María, CA

12:41 AM PST en Noviembre 22, 2014 (GMT -0800)
Harp Springs | Change Station
CLOSE
Current Station
Estación meteorológica personal
Location: Santa Maria, CA
Altura: 466 ft
Estaciones meteorológicas cercanas

Alt 466 ft 34.86 °N, 120.41 °W | Updated 3 minutes ago

Despejado
Despejado
45.7 ° F
Sensación térmica 46 ° F
N
2.7
Viento Variable Viento desde ESE

Hoy
Alta -- | Baja -- ° F
--% Posibilidad de precipitaciones
Ayer
Alta -- | Baja -- ° F
Precip. -- pul
6:42 AM 4:52 PM
Creciente menguante, 0% visible
Presión 30.14 pul
Visibilidad 10.0 Millas
Nubes Despejado
Vientos helados 46 ° F
Punto de rocío 42 ° F
Humedad 88%
Precipitaciones 0.00 pul
Espesor de la nieve No disponible.
UV 0 de una escala de 12
Polen 2.20 de una escala de 12
Calidad del aire No disponible.
Flu Activity No disponible.
METAR KSMX 220751Z AUTO 01003KT 10SM CLR 12/07 A3014 RMK AO2 SLP207 T01220067 402110078

More Conditions Fewer Conditions

Presión 30.14 pul
Visibilidad 10.0 Millas
Nubes Despejado
Vientos helados 46 ° F
Punto de rocío 42 ° F
Humedad 88%
Precipitaciones 0.00 pul
Espesor de la nieve No disponible.
UV 0 de una escala de 12
Polen 2.20 de una escala de 12
Calidad del aire No disponible.
Flu Activity No disponible.
METAR KSMX 220751Z AUTO 01003KT 10SM CLR 12/07 A3014 RMK AO2 SLP207 T01220067 402110078

More Conditions Fewer Conditions

10-Day Weather Forecast

Almanac

Astronomía

Nov. 22, 2014 Salida Puesta
Hora real
Crepúsculo civil
Crepúsculo náutico
Crepúsculo astronómico
Luna
Horas de luz
Horas de luz
Tomorrow will be .
, % of the Moon is Illuminated

Extremos de hoy

Máximos del estado Bajos del estado

Community

WunderPhotos

Upload Photos

1,772,794 ¡fotos cargadas!

WunderBlogs® & News

Nearby

Calidad del aire

  Calidad del aire Índice AQ Contaminante
Not available.

Grosos de nieve

Estación Profundido Altura

Actividad de terremotos

Ciudad Distance Mag. Tiempo y dato
Magnitud mínima muestra es 2,5.

Temperaturas de aguas costeras

Lugar Temperatura

Estaciones meteorológicas cercanas